sensor_id;sensor_type;location;lat;lon;timestamp;pressure;altitude;pressure_sealevel;temperature;humidity
74403;BME280;62837;51.082;13.744;2023-07-16T00:00:56;99652.19;;;26.15;48.54
74403;BME280;62837;51.082;13.744;2023-07-16T00:03:26;99656.60;;;26.08;48.96
74403;BME280;62837;51.082;13.744;2023-07-16T00:05:57;99664.33;;;25.97;49.33
74403;BME280;62837;51.082;13.744;2023-07-16T00:08:28;99677.66;;;25.80;49.60
74403;BME280;62837;51.082;13.744;2023-07-16T00:10:59;99682.19;;;25.66;50.01
74403;BME280;62837;51.082;13.744;2023-07-16T00:13:30;99687.76;;;25.63;50.18
74403;BME280;62837;51.082;13.744;2023-07-16T00:16:00;99699.89;;;25.66;50.02
74403;BME280;62837;51.082;13.744;2023-07-16T00:18:31;99708.67;;;25.71;50.29
74403;BME280;62837;51.082;13.744;2023-07-16T00:21:02;99735.45;;;25.75;50.01
74403;BME280;62837;51.082;13.744;2023-07-16T00:23:33;99804.06;;;25.78;50.03
74403;BME280;62837;51.082;13.744;2023-07-16T00:26:04;99882.16;;;25.72;50.30
74403;BME280;62837;51.082;13.744;2023-07-16T00:28:35;99884.30;;;25.55;50.55
74403;BME280;62837;51.082;13.744;2023-07-16T00:31:06;99843.83;;;25.35;50.66
74403;BME280;62837;51.082;13.744;2023-07-16T00:33:37;99885.66;;;25.24;51.10
74403;BME280;62837;51.082;13.744;2023-07-16T00:36:08;99902.65;;;25.18;51.23
74403;BME280;62837;51.082;13.744;2023-07-16T00:38:38;99913.08;;;25.17;51.18
74403;BME280;62837;51.082;13.744;2023-07-16T00:41:12;99920.80;;;25.10;51.56
74403;BME280;62837;51.082;13.744;2023-07-16T00:43:41;99920.92;;;25.05;51.92
74403;BME280;62837;51.082;13.744;2023-07-16T00:46:13;99931.31;;;25.03;52.05
74403;BME280;62837;51.082;13.744;2023-07-16T00:48:44;99943.29;;;25.03;52.08
74403;BME280;62837;51.082;13.744;2023-07-16T00:51:15;99945.64;;;25.03;52.28
74403;BME280;62837;51.082;13.744;2023-07-16T00:53:47;99949.48;;;25.02;52.40
74403;BME280;62837;51.082;13.744;2023-07-16T00:56:19;99946.23;;;24.98;52.38
74403;BME280;62837;51.082;13.744;2023-07-16T00:58:50;99945.41;;;24.97;52.63
74403;BME280;62837;51.082;13.744;2023-07-16T01:01:23;99949.72;;;24.96;52.93
74403;BME280;62837;51.082;13.744;2023-07-16T01:03:54;99952.44;;;24.95;52.92
74403;BME280;62837;51.082;13.744;2023-07-16T01:06:28;99952.20;;;24.96;53.22
74403;BME280;62837;51.082;13.744;2023-07-16T01:09:07;99951.39;;;24.92;53.05
74403;BME280;62837;51.082;13.744;2023-07-16T01:11:41;99955.44;;;24.95;53.26
74403;BME280;62837;51.082;13.744;2023-07-16T01:14:14;99952.52;;;24.95;53.36
74403;BME280;62837;51.082;13.744;2023-07-16T01:16:46;99948.26;;;24.95;53.51
74403;BME280;62837;51.082;13.744;2023-07-16T01:19:18;99930.90;;;24.92;53.34
74403;BME280;62837;51.082;13.744;2023-07-16T01:21:57;99916.19;;;24.92;53.41
74403;BME280;62837;51.082;13.744;2023-07-16T01:25:13;99901.55;;;24.91;53.49
74403;BME280;62837;51.082;13.744;2023-07-16T01:28:24;99892.50;;;24.89;53.13
74403;BME280;62837;51.082;13.744;2023-07-16T01:30:58;99891.82;;;24.94;53.31
74403;BME280;62837;51.082;13.744;2023-07-16T01:33:30;99890.40;;;24.96;53.03
74403;BME280;62837;51.082;13.744;2023-07-16T01:36:03;99898.85;;;24.96;52.93
74403;BME280;62837;51.082;13.744;2023-07-16T01:38:35;99900.20;;;24.95;52.98
74403;BME280;62837;51.082;13.744;2023-07-16T01:41:06;99866.65;;;24.93;53.13
74403;BME280;62837;51.082;13.744;2023-07-16T01:43:37;99849.81;;;24.95;53.08
74403;BME280;62837;51.082;13.744;2023-07-16T01:46:09;99854.73;;;24.96;53.22
74403;BME280;62837;51.082;13.744;2023-07-16T01:48:39;99863.38;;;24.94;53.14
74403;BME280;62837;51.082;13.744;2023-07-16T01:51:10;99881.81;;;24.96;53.47
74403;BME280;62837;51.082;13.744;2023-07-16T01:53:43;99895.73;;;24.93;53.49
74403;BME280;62837;51.082;13.744;2023-07-16T01:56:14;99902.05;;;24.82;53.60
74403;BME280;62837;51.082;13.744;2023-07-16T01:58:49;99895.52;;;24.78;53.74
74403;BME280;62837;51.082;13.744;2023-07-16T02:01:20;99903.76;;;24.83;53.91
74403;BME280;62837;51.082;13.744;2023-07-16T02:03:51;99912.73;;;24.79;54.13
74403;BME280;62837;51.082;13.744;2023-07-16T02:06:22;99901.27;;;24.69;54.56
74403;BME280;62837;51.082;13.744;2023-07-16T02:08:53;99886.82;;;24.60;54.54
74403;BME280;62837;51.082;13.744;2023-07-16T02:11:24;99869.67;;;24.59;54.49
74403;BME280;62837;51.082;13.744;2023-07-16T02:13:54;99886.34;;;24.64;54.96
74403;BME280;62837;51.082;13.744;2023-07-16T02:16:25;99903.23;;;24.65;55.25
74403;BME280;62837;51.082;13.744;2023-07-16T02:18:56;99916.76;;;24.69;55.80
74403;BME280;62837;51.082;13.744;2023-07-16T02:21:27;99923.74;;;24.66;56.77
74403;BME280;62837;51.082;13.744;2023-07-16T02:23:58;99952.61;;;24.60;56.51
74403;BME280;62837;51.082;13.744;2023-07-16T02:26:29;99963.67;;;24.59;57.52
74403;BME280;62837;51.082;13.744;2023-07-16T02:29:00;99973.53;;;24.53;58.05
74403;BME280;62837;51.082;13.744;2023-07-16T02:31:31;99973.55;;;24.44;58.55
74403;BME280;62837;51.082;13.744;2023-07-16T02:34:02;99965.40;;;24.36;58.88
74403;BME280;62837;51.082;13.744;2023-07-16T02:36:35;99962.59;;;24.36;58.98
74403;BME280;62837;51.082;13.744;2023-07-16T02:39:05;99978.20;;;24.34;59.44
74403;BME280;62837;51.082;13.744;2023-07-16T02:41:36;99999.96;;;24.31;59.46
74403;BME280;62837;51.082;13.744;2023-07-16T02:44:08;99987.71;;;24.30;59.68
74403;BME280;62837;51.082;13.744;2023-07-16T02:46:38;99974.46;;;24.30;59.84
74403;BME280;62837;51.082;13.744;2023-07-16T02:49:11;99980.49;;;24.27;60.60
74403;BME280;62837;51.082;13.744;2023-07-16T02:51:41;100009.45;;;24.10;61.00
74403;BME280;62837;51.082;13.744;2023-07-16T02:54:12;100024.42;;;23.94;61.26
74403;BME280;62837;51.082;13.744;2023-07-16T02:56:43;100032.77;;;23.83;61.23
74403;BME280;62837;51.082;13.744;2023-07-16T02:59:14;100046.58;;;23.89;60.51
74403;BME280;62837;51.082;13.744;2023-07-16T03:01:44;100045.95;;;23.95;60.46
74403;BME280;62837;51.082;13.744;2023-07-16T03:04:16;100052.02;;;24.03;59.65
74403;BME280;62837;51.082;13.744;2023-07-16T03:06:47;100057.50;;;24.14;59.80
74403;BME280;62837;51.082;13.744;2023-07-16T03:09:17;100065.51;;;24.27;59.52
74403;BME280;62837;51.082;13.744;2023-07-16T03:11:48;100074.75;;;24.36;59.24
74403;BME280;62837;51.082;13.744;2023-07-16T03:14:18;100074.46;;;24.39;59.11
74403;BME280;62837;51.082;13.744;2023-07-16T03:16:49;100073.65;;;24.45;58.89
74403;BME280;62837;51.082;13.744;2023-07-16T03:19:20;100075.17;;;24.51;58.77
74403;BME280;62837;51.082;13.744;2023-07-16T03:21:51;100077.58;;;24.51;59.59
74403;BME280;62837;51.082;13.744;2023-07-16T03:24:22;100075.61;;;24.34;59.71
74403;BME280;62837;51.082;13.744;2023-07-16T03:26:53;100076.19;;;24.30;60.17
74403;BME280;62837;51.082;13.744;2023-07-16T03:29:44;100085.08;;;24.21;60.54
74403;BME280;62837;51.082;13.744;2023-07-16T03:32:14;100098.08;;;24.18;60.43
74403;BME280;62837;51.082;13.744;2023-07-16T03:34:45;100113.57;;;24.23;60.35
74403;BME280;62837;51.082;13.744;2023-07-16T03:37:16;100115.20;;;24.24;60.60
74403;BME280;62837;51.082;13.744;2023-07-16T03:39:48;100123.92;;;24.28;59.98
74403;BME280;62837;51.082;13.744;2023-07-16T03:42:19;100116.45;;;24.36;60.12
74403;BME280;62837;51.082;13.744;2023-07-16T03:44:51;100105.71;;;24.31;60.33
74403;BME280;62837;51.082;13.744;2023-07-16T03:47:22;100101.69;;;24.33;60.54
74403;BME280;62837;51.082;13.744;2023-07-16T03:49:53;100085.12;;;24.28;60.57
74403;BME280;62837;51.082;13.744;2023-07-16T03:52:24;100055.94;;;24.26;59.99
74403;BME280;62837;51.082;13.744;2023-07-16T03:54:56;100038.61;;;24.35;60.17
74403;BME280;62837;51.082;13.744;2023-07-16T03:57:27;100052.13;;;24.36;59.96
74403;BME280;62837;51.082;13.744;2023-07-16T03:59:58;100054.09;;;24.44;59.84
74403;BME280;62837;51.082;13.744;2023-07-16T04:02:29;100045.66;;;24.50;59.67
74403;BME280;62837;51.082;13.744;2023-07-16T04:05:00;100040.44;;;24.56;59.57
74403;BME280;62837;51.082;13.744;2023-07-16T04:07:31;100013.09;;;24.60;59.52
74403;BME280;62837;51.082;13.744;2023-07-16T04:10:02;99999.48;;;24.65;59.35
74403;BME280;62837;51.082;13.744;2023-07-16T04:12:33;99987.98;;;24.67;59.29
74403;BME280;62837;51.082;13.744;2023-07-16T04:15:08;99983.25;;;24.68;59.28
74403;BME280;62837;51.082;13.744;2023-07-16T04:17:40;99991.67;;;24.64;59.46
74403;BME280;62837;51.082;13.744;2023-07-16T04:20:11;99991.85;;;24.59;59.76
74403;BME280;62837;51.082;13.744;2023-07-16T04:22:42;99977.77;;;24.48;59.98
74403;BME280;62837;51.082;13.744;2023-07-16T04:25:13;99983.16;;;24.40;60.17
74403;BME280;62837;51.082;13.744;2023-07-16T04:27:45;99984.14;;;24.40;60.32
74403;BME280;62837;51.082;13.744;2023-07-16T04:30:16;99979.66;;;24.34;60.62
74403;BME280;62837;51.082;13.744;2023-07-16T04:32:46;99982.82;;;24.27;61.21
74403;BME280;62837;51.082;13.744;2023-07-16T04:35:17;99991.84;;;24.06;61.91
74403;BME280;62837;51.082;13.744;2023-07-16T04:37:49;99999.52;;;23.96;61.33
74403;BME280;62837;51.082;13.744;2023-07-16T04:40:20;100002.77;;;24.04;61.13
74403;BME280;62837;51.082;13.744;2023-07-16T04:42:51;100004.20;;;24.14;61.00
74403;BME280;62837;51.082;13.744;2023-07-16T04:45:21;100010.08;;;24.23;60.93
74403;BME280;62837;51.082;13.744;2023-07-16T04:47:52;100001.47;;;24.28;60.73
74403;BME280;62837;51.082;13.744;2023-07-16T04:50:23;100001.58;;;24.32;60.72
74403;BME280;62837;51.082;13.744;2023-07-16T04:52:54;100008.65;;;24.38;60.47
74403;BME280;62837;51.082;13.744;2023-07-16T04:55:25;100017.61;;;24.46;60.38
74403;BME280;62837;51.082;13.744;2023-07-16T04:57:56;100020.20;;;24.53;60.22
74403;BME280;62837;51.082;13.744;2023-07-16T05:00:27;100016.84;;;24.56;60.29
74403;BME280;62837;51.082;13.744;2023-07-16T05:02:57;100015.56;;;24.60;60.01
74403;BME280;62837;51.082;13.744;2023-07-16T05:05:28;100006.11;;;24.61;60.01
74403;BME280;62837;51.082;13.744;2023-07-16T05:07:59;100000.11;;;24.58;59.93
74403;BME280;62837;51.082;13.744;2023-07-16T05:10:30;99982.09;;;24.51;59.87
74403;BME280;62837;51.082;13.744;2023-07-16T05:13:01;99975.95;;;24.44;59.96
74403;BME280;62837;51.082;13.744;2023-07-16T05:15:33;99957.59;;;24.38;60.01
74403;BME280;62837;51.082;13.744;2023-07-16T05:18:04;99942.94;;;24.34;60.08
74403;BME280;62837;51.082;13.744;2023-07-16T05:20:35;99936.34;;;24.33;59.96
74403;BME280;62837;51.082;13.744;2023-07-16T05:23:06;99937.73;;;24.32;60.12
74403;BME280;62837;51.082;13.744;2023-07-16T05:25:37;99940.95;;;24.32;59.98
74403;BME280;62837;51.082;13.744;2023-07-16T05:28:08;99959.84;;;24.35;60.00
74403;BME280;62837;51.082;13.744;2023-07-16T05:30:39;99974.93;;;24.35;60.32
74403;BME280;62837;51.082;13.744;2023-07-16T05:33:10;99993.64;;;24.29;60.42
74403;BME280;62837;51.082;13.744;2023-07-16T05:35:41;100008.75;;;24.30;60.50
74403;BME280;62837;51.082;13.744;2023-07-16T05:38:12;100000.05;;;24.31;60.54
74403;BME280;62837;51.082;13.744;2023-07-16T05:40:43;100011.95;;;24.35;60.56
74403;BME280;62837;51.082;13.744;2023-07-16T05:43:13;100018.58;;;24.34;62.08
74403;BME280;62837;51.082;13.744;2023-07-16T05:45:45;100023.88;;;24.12;62.31
74403;BME280;62837;51.082;13.744;2023-07-16T05:48:15;100023.60;;;24.02;62.17
74403;BME280;62837;51.082;13.744;2023-07-16T05:50:46;100036.50;;;24.04;62.14
74403;BME280;62837;51.082;13.744;2023-07-16T05:53:17;100041.49;;;24.11;61.90
74403;BME280;62837;51.082;13.744;2023-07-16T05:55:48;100048.61;;;24.25;61.64
74403;BME280;62837;51.082;13.744;2023-07-16T05:58:21;100057.36;;;24.39;61.70
74403;BME280;62837;51.082;13.744;2023-07-16T06:00:52;100055.48;;;24.51;62.10
74403;BME280;62837;51.082;13.744;2023-07-16T06:03:22;100058.35;;;24.61;61.50
74403;BME280;62837;51.082;13.744;2023-07-16T06:05:53;100058.63;;;24.90;60.97
74403;BME280;62837;51.082;13.744;2023-07-16T06:08:24;100081.11;;;25.33;61.58
74403;BME280;62837;51.082;13.744;2023-07-16T06:10:55;100104.12;;;25.66;61.22
74403;BME280;62837;51.082;13.744;2023-07-16T06:13:26;100109.08;;;25.97;61.46
74403;BME280;62837;51.082;13.744;2023-07-16T06:15:57;100110.10;;;26.33;60.32
74403;BME280;62837;51.082;13.744;2023-07-16T06:18:28;100102.20;;;26.77;59.52
74403;BME280;62837;51.082;13.744;2023-07-16T06:20:59;100111.55;;;27.26;59.03
74403;BME280;62837;51.082;13.744;2023-07-16T06:23:29;100115.45;;;27.60;57.40
74403;BME280;62837;51.082;13.744;2023-07-16T06:26:00;100114.23;;;27.70;56.15
74403;BME280;62837;51.082;13.744;2023-07-16T06:28:32;100122.81;;;27.66;55.58
74403;BME280;62837;51.082;13.744;2023-07-16T06:31:03;100125.52;;;27.63;54.99
74403;BME280;62837;51.082;13.744;2023-07-16T06:33:34;100132.04;;;27.83;55.46
74403;BME280;62837;51.082;13.744;2023-07-16T06:36:05;100131.84;;;28.15;54.74
74403;BME280;62837;51.082;13.744;2023-07-16T06:38:36;100128.57;;;28.36;54.05
74403;BME280;62837;51.082;13.744;2023-07-16T06:41:07;100129.97;;;28.43;53.28
74403;BME280;62837;51.082;13.744;2023-07-16T06:43:38;100127.42;;;28.35;53.05
74403;BME280;62837;51.082;13.744;2023-07-16T06:46:09;100128.67;;;28.44;52.86
74403;BME280;62837;51.082;13.744;2023-07-16T06:48:40;100125.30;;;28.79;52.50
74403;BME280;62837;51.082;13.744;2023-07-16T06:51:10;100120.20;;;28.93;51.56
74403;BME280;62837;51.082;13.744;2023-07-16T06:53:41;100123.47;;;28.89;51.40
74403;BME280;62837;51.082;13.744;2023-07-16T06:56:12;100119.73;;;28.79;51.07
74403;BME280;62837;51.082;13.744;2023-07-16T06:58:43;100120.65;;;28.82;50.58
74403;BME280;62837;51.082;13.744;2023-07-16T07:01:14;100121.29;;;28.81;50.02
74403;BME280;62837;51.082;13.744;2023-07-16T07:03:45;100121.48;;;28.84;50.13
74403;BME280;62837;51.082;13.744;2023-07-16T07:06:16;100118.80;;;29.00;49.57
74403;BME280;62837;51.082;13.744;2023-07-16T07:08:47;100121.70;;;29.15;49.14
74403;BME280;62837;51.082;13.744;2023-07-16T07:11:17;100127.44;;;29.30;48.60
74403;BME280;62837;51.082;13.744;2023-07-16T07:13:48;100131.36;;;29.44;48.05
74403;BME280;62837;51.082;13.744;2023-07-16T07:16:20;100126.58;;;29.54;47.44
74403;BME280;62837;51.082;13.744;2023-07-16T07:18:51;100122.30;;;29.65;47.39
74403;BME280;62837;51.082;13.744;2023-07-16T07:21:21;100120.99;;;29.75;46.53
74403;BME280;62837;51.082;13.744;2023-07-16T07:23:53;100118.85;;;29.83;46.56
74403;BME280;62837;51.082;13.744;2023-07-16T07:26:25;100127.95;;;29.97;46.57
74403;BME280;62837;51.082;13.744;2023-07-16T07:28:56;100135.30;;;30.06;45.74
74403;BME280;62837;51.082;13.744;2023-07-16T07:31:27;100136.14;;;30.11;45.05
74403;BME280;62837;51.082;13.744;2023-07-16T07:33:58;100141.75;;;30.15;44.71
74403;BME280;62837;51.082;13.744;2023-07-16T07:36:29;100148.27;;;30.07;43.25
74403;BME280;62837;51.082;13.744;2023-07-16T07:38:59;100146.98;;;29.94;43.66
74403;BME280;62837;51.082;13.744;2023-07-16T07:41:32;100150.92;;;30.02;43.83
74403;BME280;62837;51.082;13.744;2023-07-16T07:44:03;100157.70;;;29.87;43.66
74403;BME280;62837;51.082;13.744;2023-07-16T07:46:34;100156.67;;;29.83;43.73
74403;BME280;62837;51.082;13.744;2023-07-16T07:49:07;100160.94;;;29.59;40.96
74403;BME280;62837;51.082;13.744;2023-07-16T07:51:38;100168.44;;;29.20;40.88
74403;BME280;62837;51.082;13.744;2023-07-16T07:54:09;100179.00;;;28.80;40.88
74403;BME280;62837;51.082;13.744;2023-07-16T07:56:40;100185.95;;;28.36;41.80
74403;BME280;62837;51.082;13.744;2023-07-16T07:59:11;100188.13;;;28.08;42.71
74403;BME280;62837;51.082;13.744;2023-07-16T08:01:42;100194.88;;;27.85;42.88
74403;BME280;62837;51.082;13.744;2023-07-16T08:04:12;100199.57;;;27.66;43.61
74403;BME280;62837;51.082;13.744;2023-07-16T08:06:44;100194.92;;;27.53;44.40
74403;BME280;62837;51.082;13.744;2023-07-16T08:09:15;100187.31;;;27.40;45.07
74403;BME280;62837;51.082;13.744;2023-07-16T08:11:45;100196.58;;;27.25;45.06
74403;BME280;62837;51.082;13.744;2023-07-16T08:14:16;100189.55;;;27.11;45.55
74403;BME280;62837;51.082;13.744;2023-07-16T08:16:47;100185.96;;;27.06;45.94
74403;BME280;62837;51.082;13.744;2023-07-16T08:19:18;100186.34;;;27.04;46.75
74403;BME280;62837;51.082;13.744;2023-07-16T08:21:49;100180.83;;;27.02;46.56
74403;BME280;62837;51.082;13.744;2023-07-16T08:24:22;100178.27;;;27.03;46.19
74403;BME280;62837;51.082;13.744;2023-07-16T08:26:53;100176.23;;;26.98;46.00
74403;BME280;62837;51.082;13.744;2023-07-16T08:29:23;100184.54;;;26.86;46.06
74403;BME280;62837;51.082;13.744;2023-07-16T08:31:54;100190.60;;;26.83;46.51
74403;BME280;62837;51.082;13.744;2023-07-16T08:34:25;100197.29;;;26.83;46.45
74403;BME280;62837;51.082;13.744;2023-07-16T08:36:56;100206.42;;;26.81;46.31
74403;BME280;62837;51.082;13.744;2023-07-16T08:39:26;100213.56;;;26.87;45.97
74403;BME280;62837;51.082;13.744;2023-07-16T08:41:58;100214.61;;;26.98;45.53
74403;BME280;62837;51.082;13.744;2023-07-16T08:44:30;100207.25;;;27.05;45.47
74403;BME280;62837;51.082;13.744;2023-07-16T08:47:08;100202.29;;;27.07;45.37
74403;BME280;62837;51.082;13.744;2023-07-16T08:49:43;100199.72;;;27.12;45.16
74403;BME280;62837;51.082;13.744;2023-07-16T08:52:20;100207.41;;;27.14;44.46
74403;BME280;62837;51.082;13.744;2023-07-16T08:54:51;100199.67;;;27.10;44.20
74403;BME280;62837;51.082;13.744;2023-07-16T08:57:22;100210.59;;;27.07;44.22
74403;BME280;62837;51.082;13.744;2023-07-16T08:59:53;100208.77;;;27.08;44.28
74403;BME280;62837;51.082;13.744;2023-07-16T09:02:26;100219.44;;;27.14;44.74
74403;BME280;62837;51.082;13.744;2023-07-16T09:04:57;100221.96;;;27.28;43.87
74403;BME280;62837;51.082;13.744;2023-07-16T09:07:29;100228.02;;;27.37;43.28
74403;BME280;62837;51.082;13.744;2023-07-16T09:10:00;100232.34;;;27.27;43.32
74403;BME280;62837;51.082;13.744;2023-07-16T09:12:31;100233.47;;;27.14;43.89
74403;BME280;62837;51.082;13.744;2023-07-16T09:15:03;100231.33;;;27.07;43.94
74403;BME280;62837;51.082;13.744;2023-07-16T09:17:33;100230.85;;;27.03;44.15
74403;BME280;62837;51.082;13.744;2023-07-16T09:20:10;100236.37;;;27.01;44.00
74403;BME280;62837;51.082;13.744;2023-07-16T09:22:41;100245.18;;;26.94;44.18
74403;BME280;62837;51.082;13.744;2023-07-16T09:25:12;100242.98;;;26.96;44.32
74403;BME280;62837;51.082;13.744;2023-07-16T09:27:42;100245.53;;;27.04;45.34
74403;BME280;62837;51.082;13.744;2023-07-16T09:30:17;100247.39;;;27.16;45.39
74403;BME280;62837;51.082;13.744;2023-07-16T09:32:48;100243.28;;;27.35;45.32
74403;BME280;62837;51.082;13.744;2023-07-16T09:35:19;100243.65;;;27.65;45.27
74403;BME280;62837;51.082;13.744;2023-07-16T09:37:50;100238.77;;;28.03;44.41
74403;BME280;62837;51.082;13.744;2023-07-16T09:40:21;100240.39;;;28.34;43.91
74403;BME280;62837;51.082;13.744;2023-07-16T09:42:53;100243.95;;;28.40;43.29
74403;BME280;62837;51.082;13.744;2023-07-16T09:45:28;100242.70;;;28.32;42.84
74403;BME280;62837;51.082;13.744;2023-07-16T09:47:59;100242.05;;;28.21;42.76
74403;BME280;62837;51.082;13.744;2023-07-16T09:50:31;100236.33;;;28.12;42.44
74403;BME280;62837;51.082;13.744;2023-07-16T09:53:03;100233.53;;;28.09;42.94
74403;BME280;62837;51.082;13.744;2023-07-16T09:55:35;100232.82;;;28.13;41.90
74403;BME280;62837;51.082;13.744;2023-07-16T09:58:09;100230.23;;;28.19;41.33
74403;BME280;62837;51.082;13.744;2023-07-16T10:00:41;100231.08;;;28.38;40.37
74403;BME280;62837;51.082;13.744;2023-07-16T10:03:13;100231.66;;;28.58;39.82
74403;BME280;62837;51.082;13.744;2023-07-16T10:05:45;100233.64;;;28.83;39.42
74403;BME280;62837;51.082;13.744;2023-07-16T10:08:21;100238.80;;;28.88;38.90
74403;BME280;62837;51.082;13.744;2023-07-16T10:10:55;100236.17;;;28.85;38.09
74403;BME280;62837;51.082;13.744;2023-07-16T10:13:28;100241.43;;;29.06;38.18
74403;BME280;62837;51.082;13.744;2023-07-16T10:16:00;100245.45;;;29.10;37.80
74403;BME280;62837;51.082;13.744;2023-07-16T10:18:37;100240.90;;;28.96;36.17
74403;BME280;62837;51.082;13.744;2023-07-16T10:21:09;100237.42;;;28.77;37.08
74403;BME280;62837;51.082;13.744;2023-07-16T10:23:41;100241.41;;;28.61;38.72
74403;BME280;62837;51.082;13.744;2023-07-16T10:26:13;100247.01;;;28.44;39.03
74403;BME280;62837;51.082;13.744;2023-07-16T10:28:48;100248.96;;;28.40;39.32
74403;BME280;62837;51.082;13.744;2023-07-16T10:31:25;100247.99;;;28.58;38.73
74403;BME280;62837;51.082;13.744;2023-07-16T10:34:01;100249.32;;;28.90;38.30
74403;BME280;62837;51.082;13.744;2023-07-16T10:36:39;100254.62;;;29.21;37.77
74403;BME280;62837;51.082;13.744;2023-07-16T10:39:10;100256.55;;;29.39;36.92
74403;BME280;62837;51.082;13.744;2023-07-16T10:41:41;100261.48;;;29.47;36.90
74403;BME280;62837;51.082;13.744;2023-07-16T10:44:14;100260.04;;;29.49;37.27
74403;BME280;62837;51.082;13.744;2023-07-16T10:46:44;100255.61;;;29.51;36.20
74403;BME280;62837;51.082;13.744;2023-07-16T10:49:15;100257.30;;;29.49;36.17
74403;BME280;62837;51.082;13.744;2023-07-16T10:51:46;100259.89;;;29.42;36.53
74403;BME280;62837;51.082;13.744;2023-07-16T10:54:19;100257.96;;;29.51;36.86
74403;BME280;62837;51.082;13.744;2023-07-16T10:56:52;100257.89;;;29.60;35.99
74403;BME280;62837;51.082;13.744;2023-07-16T10:59:21;100250.70;;;29.45;35.19
74403;BME280;62837;51.082;13.744;2023-07-16T11:01:52;100261.40;;;29.32;35.29
74403;BME280;62837;51.082;13.744;2023-07-16T11:04:23;100257.77;;;29.21;35.92
74403;BME280;62837;51.082;13.744;2023-07-16T11:06:54;100254.67;;;29.19;36.03
74403;BME280;62837;51.082;13.744;2023-07-16T11:09:25;100254.59;;;29.04;36.04
74403;BME280;62837;51.082;13.744;2023-07-16T11:11:56;100248.34;;;28.89;36.17
74403;BME280;62837;51.082;13.744;2023-07-16T11:14:35;100246.84;;;28.78;36.27
74403;BME280;62837;51.082;13.744;2023-07-16T11:17:07;100249.12;;;28.80;36.15
74403;BME280;62837;51.082;13.744;2023-07-16T11:19:39;100247.34;;;28.99;37.30
74403;BME280;62837;51.082;13.744;2023-07-16T11:22:16;100250.43;;;29.08;37.09
74403;BME280;62837;51.082;13.744;2023-07-16T11:24:46;100252.27;;;29.05;36.76
74403;BME280;62837;51.082;13.744;2023-07-16T11:27:20;100254.91;;;28.96;36.47
74403;BME280;62837;51.082;13.744;2023-07-16T11:29:53;100258.58;;;28.79;36.57
74403;BME280;62837;51.082;13.744;2023-07-16T11:32:32;100262.34;;;28.60;36.88
74403;BME280;62837;51.082;13.744;2023-07-16T11:35:06;100259.21;;;28.44;37.35
74403;BME280;62837;51.082;13.744;2023-07-16T11:37:37;100260.79;;;28.31;37.42
74403;BME280;62837;51.082;13.744;2023-07-16T11:40:11;100257.59;;;28.22;37.52
74403;BME280;62837;51.082;13.744;2023-07-16T11:42:45;100253.98;;;28.19;37.56
74403;BME280;62837;51.082;13.744;2023-07-16T11:45:20;100249.60;;;28.39;38.06
74403;BME280;62837;51.082;13.744;2023-07-16T11:47:53;100246.59;;;28.67;37.89
74403;BME280;62837;51.082;13.744;2023-07-16T11:50:24;100237.70;;;28.78;37.16
74403;BME280;62837;51.082;13.744;2023-07-16T11:52:59;100237.48;;;28.94;37.48
74403;BME280;62837;51.082;13.744;2023-07-16T11:55:31;100224.07;;;29.09;37.17
74403;BME280;62837;51.082;13.744;2023-07-16T11:58:02;100228.18;;;29.07;36.38
74403;BME280;62837;51.082;13.744;2023-07-16T12:00:32;100228.91;;;28.93;36.34
74403;BME280;62837;51.082;13.744;2023-07-16T12:03:03;100231.27;;;28.76;36.80
74403;BME280;62837;51.082;13.744;2023-07-16T12:05:34;100230.09;;;28.61;37.00
74403;BME280;62837;51.082;13.744;2023-07-16T12:08:20;100230.88;;;28.58;37.17
74403;BME280;62837;51.082;13.744;2023-07-16T12:10:51;100227.34;;;28.55;37.38
74403;BME280;62837;51.082;13.744;2023-07-16T12:13:22;100223.20;;;28.53;37.35
74403;BME280;62837;51.082;13.744;2023-07-16T12:15:53;100225.80;;;28.55;37.74
74403;BME280;62837;51.082;13.744;2023-07-16T12:18:24;100225.63;;;28.54;37.51
74403;BME280;62837;51.082;13.744;2023-07-16T12:20:56;100220.13;;;28.59;37.58
74403;BME280;62837;51.082;13.744;2023-07-16T12:23:27;100218.68;;;28.66;37.80
74403;BME280;62837;51.082;13.744;2023-07-16T12:25:59;100217.58;;;28.80;37.52
74403;BME280;62837;51.082;13.744;2023-07-16T12:28:30;100217.13;;;28.89;38.09
74403;BME280;62837;51.082;13.744;2023-07-16T12:31:01;100213.09;;;29.04;37.78
74403;BME280;62837;51.082;13.744;2023-07-16T12:33:31;100208.78;;;29.18;37.53
74403;BME280;62837;51.082;13.744;2023-07-16T12:36:02;100203.10;;;29.30;37.03
74403;BME280;62837;51.082;13.744;2023-07-16T12:38:33;100206.74;;;29.47;37.63
74403;BME280;62837;51.082;13.744;2023-07-16T12:41:04;100206.98;;;29.62;37.18
74403;BME280;62837;51.082;13.744;2023-07-16T12:43:35;100206.34;;;29.75;37.38
74403;BME280;62837;51.082;13.744;2023-07-16T12:46:07;100204.95;;;29.82;36.77
74403;BME280;62837;51.082;13.744;2023-07-16T12:48:38;100208.05;;;29.86;36.45
74403;BME280;62837;51.082;13.744;2023-07-16T12:51:11;100207.48;;;29.86;36.28
74403;BME280;62837;51.082;13.744;2023-07-16T12:53:42;100206.68;;;29.76;36.20
74403;BME280;62837;51.082;13.744;2023-07-16T12:56:13;100212.89;;;29.63;36.31
74403;BME280;62837;51.082;13.744;2023-07-16T12:58:45;100206.17;;;29.54;36.53
74403;BME280;62837;51.082;13.744;2023-07-16T13:01:16;100205.05;;;29.45;36.55
74403;BME280;62837;51.082;13.744;2023-07-16T13:03:47;100209.92;;;29.33;37.23
74403;BME280;62837;51.082;13.744;2023-07-16T13:06:17;100215.02;;;29.17;36.97